sensor_id;sensor_type;location;lat;lon;timestamp;pressure;altitude;pressure_sealevel;temperature;humidity
65384;BME280;51986;52.788;41.368;2022-08-03T00:00:25;99237.16;;;20.34;44.44
65384;BME280;51986;52.788;41.368;2022-08-03T00:02:52;99229.00;;;20.13;45.12
65384;BME280;51986;52.788;41.368;2022-08-03T00:05:19;99239.84;;;20.34;44.96
65384;BME280;51986;52.788;41.368;2022-08-03T00:07:46;99234.84;;;20.26;45.23
65384;BME280;51986;52.788;41.368;2022-08-03T00:10:30;99235.69;;;20.33;44.99
65384;BME280;51986;52.788;41.368;2022-08-03T00:12:57;99228.03;;;20.25;45.22
65384;BME280;51986;52.788;41.368;2022-08-03T00:15:24;99245.91;;;20.19;45.35
65384;BME280;51986;52.788;41.368;2022-08-03T00:17:51;99248.03;;;19.91;46.09
65384;BME280;51986;52.788;41.368;2022-08-03T00:20:23;99244.38;;;20.04;45.50
65384;BME280;51986;52.788;41.368;2022-08-03T00:22:50;99220.50;;;20.15;45.34
65384;BME280;51986;52.788;41.368;2022-08-03T00:25:17;99243.91;;;20.05;45.51
65384;BME280;51986;52.788;41.368;2022-08-03T00:27:44;99232.94;;;20.03;45.72
65384;BME280;51986;52.788;41.368;2022-08-03T00:30:14;99237.09;;;20.04;45.49
65384;BME280;51986;52.788;41.368;2022-08-03T00:32:43;99235.16;;;20.05;45.57
65384;BME280;51986;52.788;41.368;2022-08-03T00:35:11;99267.75;;;20.03;45.40
65384;BME280;51986;52.788;41.368;2022-08-03T00:37:58;99241.25;;;20.05;45.84
65384;BME280;51986;52.788;41.368;2022-08-03T00:40:26;99247.63;;;20.08;45.47
65384;BME280;51986;52.788;41.368;2022-08-03T00:42:59;99251.50;;;20.07;45.59
65384;BME280;51986;52.788;41.368;2022-08-03T00:48:26;99263.63;;;20.17;45.42
65384;BME280;51986;52.788;41.368;2022-08-03T00:50:59;99271.78;;;20.22;45.36
65384;BME280;51986;52.788;41.368;2022-08-03T00:53:26;99250.81;;;20.21;45.25
65384;BME280;51986;52.788;41.368;2022-08-03T00:55:53;99255.72;;;20.22;45.55
65384;BME280;51986;52.788;41.368;2022-08-03T00:58:20;99218.19;;;20.08;45.53
65384;BME280;51986;52.788;41.368;2022-08-03T01:01:05;99242.41;;;20.28;45.19
65384;BME280;51986;52.788;41.368;2022-08-03T01:03:32;99232.06;;;20.21;45.15
65384;BME280;51986;52.788;41.368;2022-08-03T01:06:14;99235.75;;;20.23;45.27
65384;BME280;51986;52.788;41.368;2022-08-03T01:12:02;99238.75;;;20.40;45.04
65384;BME280;51986;52.788;41.368;2022-08-03T01:14:38;99221.16;;;20.24;45.03
65384;BME280;51986;52.788;41.368;2022-08-03T01:17:13;99234.28;;;20.22;44.96
65384;BME280;51986;52.788;41.368;2022-08-03T01:22:39;99236.16;;;20.31;44.92
65384;BME280;51986;52.788;41.368;2022-08-03T01:30:55;99235.97;;;20.35;44.86
65384;BME280;51986;52.788;41.368;2022-08-03T01:33:31;99239.06;;;20.18;45.71
65384;BME280;51986;52.788;41.368;2022-08-03T01:36:10;99242.75;;;20.06;46.25
65384;BME280;51986;52.788;41.368;2022-08-03T01:38:45;99256.25;;;20.12;45.99
65384;BME280;51986;52.788;41.368;2022-08-03T01:41:17;99243.00;;;20.08;45.77
65384;BME280;51986;52.788;41.368;2022-08-03T01:43:47;99260.28;;;20.07;45.98
65384;BME280;51986;52.788;41.368;2022-08-03T01:46:36;99253.00;;;19.84;46.72
65384;BME280;51986;52.788;41.368;2022-08-03T01:49:06;99243.34;;;20.01;46.73
65384;BME280;51986;52.788;41.368;2022-08-03T01:51:37;99230.13;;;19.83;46.57
65384;BME280;51986;52.788;41.368;2022-08-03T01:54:26;99236.59;;;19.91;46.18
65384;BME280;51986;52.788;41.368;2022-08-03T01:56:56;99227.88;;;19.81;46.63
65384;BME280;51986;52.788;41.368;2022-08-03T01:59:25;99244.72;;;19.72;47.12
65384;BME280;51986;52.788;41.368;2022-08-03T02:01:53;99253.09;;;19.89;47.07
65384;BME280;51986;52.788;41.368;2022-08-03T02:04:43;99268.84;;;19.96;47.22
65384;BME280;51986;52.788;41.368;2022-08-03T02:07:11;99236.06;;;19.77;47.29
65384;BME280;51986;52.788;41.368;2022-08-03T02:09:48;99259.56;;;19.83;46.98
65384;BME280;51986;52.788;41.368;2022-08-03T02:12:16;99240.94;;;19.88;47.04
65384;BME280;51986;52.788;41.368;2022-08-03T02:14:46;99256.88;;;19.83;47.00
65384;BME280;51986;52.788;41.368;2022-08-03T02:17:15;99254.31;;;19.88;46.84
65384;BME280;51986;52.788;41.368;2022-08-03T02:19:43;99251.00;;;19.93;46.77
65384;BME280;51986;52.788;41.368;2022-08-03T02:22:12;99249.34;;;19.96;47.08
65384;BME280;51986;52.788;41.368;2022-08-03T02:24:40;99240.28;;;19.93;46.86
65384;BME280;51986;52.788;41.368;2022-08-03T02:27:20;99255.00;;;19.98;46.90
65384;BME280;51986;52.788;41.368;2022-08-03T02:29:54;99257.16;;;20.09;47.09
65384;BME280;51986;52.788;41.368;2022-08-03T02:32:31;99262.38;;;20.03;46.72
65384;BME280;51986;52.788;41.368;2022-08-03T02:35:02;99267.06;;;20.17;46.93
65384;BME280;51986;52.788;41.368;2022-08-03T02:37:34;99263.19;;;20.18;46.79
65384;BME280;51986;52.788;41.368;2022-08-03T02:40:09;99263.31;;;20.39;46.37
65384;BME280;51986;52.788;41.368;2022-08-03T02:42:37;99235.75;;;20.23;46.29
65384;BME280;51986;52.788;41.368;2022-08-03T02:45:09;99265.34;;;20.44;46.22
65384;BME280;51986;52.788;41.368;2022-08-03T02:47:39;99271.06;;;20.37;46.41
65384;BME280;51986;52.788;41.368;2022-08-03T02:50:21;99272.28;;;20.74;45.62
65384;BME280;51986;52.788;41.368;2022-08-03T02:52:51;99258.78;;;20.84;45.24
65384;BME280;51986;52.788;41.368;2022-08-03T02:55:22;99242.31;;;20.91;45.35
65384;BME280;51986;52.788;41.368;2022-08-03T02:57:50;99260.88;;;21.09;44.90
65384;BME280;51986;52.788;41.368;2022-08-03T03:00:18;99250.72;;;21.13;45.07
65384;BME280;51986;52.788;41.368;2022-08-03T03:02:57;99251.78;;;21.51;44.39
65384;BME280;51986;52.788;41.368;2022-08-03T03:05:26;99245.72;;;23.16;41.22
65384;BME280;51986;52.788;41.368;2022-08-03T03:08:16;99239.22;;;24.53;38.23
65384;BME280;51986;52.788;41.368;2022-08-03T03:10:53;99233.44;;;25.80;36.50
65384;BME280;51986;52.788;41.368;2022-08-03T03:13:22;99235.22;;;27.20;33.45
65384;BME280;51986;52.788;41.368;2022-08-03T03:15:49;99230.91;;;28.17;31.59
65384;BME280;51986;52.788;41.368;2022-08-03T03:18:19;99216.97;;;28.58;30.79
65384;BME280;51986;52.788;41.368;2022-08-03T03:20:50;99236.19;;;29.06;30.43
65384;BME280;51986;52.788;41.368;2022-08-03T03:23:20;99252.31;;;29.70;29.49
65384;BME280;51986;52.788;41.368;2022-08-03T03:25:48;99225.41;;;30.27;28.37
65384;BME280;51986;52.788;41.368;2022-08-03T03:28:15;99218.53;;;30.89;27.72
65384;BME280;51986;52.788;41.368;2022-08-03T03:30:43;99215.25;;;31.19;26.74
65384;BME280;51986;52.788;41.368;2022-08-03T03:33:18;99231.09;;;31.57;25.83
65384;BME280;51986;52.788;41.368;2022-08-03T03:35:45;99246.63;;;32.52;24.67
65384;BME280;51986;52.788;41.368;2022-08-03T03:38:13;99219.31;;;32.36;25.21
65384;BME280;51986;52.788;41.368;2022-08-03T03:40:40;99233.91;;;32.77;24.40
65384;BME280;51986;52.788;41.368;2022-08-03T03:43:09;99223.69;;;33.71;22.99
65384;BME280;51986;52.788;41.368;2022-08-03T03:45:36;99220.22;;;33.15;23.25
65384;BME280;51986;52.788;41.368;2022-08-03T03:48:07;99233.75;;;31.85;25.27
65384;BME280;51986;52.788;41.368;2022-08-03T03:50:35;99242.03;;;31.00;26.59
65384;BME280;51986;52.788;41.368;2022-08-03T03:53:03;99237.50;;;30.81;27.23
65384;BME280;51986;52.788;41.368;2022-08-03T03:55:30;99222.53;;;31.97;25.79
65384;BME280;51986;52.788;41.368;2022-08-03T03:57:57;99237.16;;;32.76;24.22
65384;BME280;51986;52.788;41.368;2022-08-03T04:00:24;99230.63;;;33.09;23.69
65384;BME280;51986;52.788;41.368;2022-08-03T04:02:51;99223.91;;;33.99;22.70
65384;BME280;51986;52.788;41.368;2022-08-03T04:05:18;99220.94;;;34.04;22.75
65384;BME280;51986;52.788;41.368;2022-08-03T04:08:00;99234.88;;;34.23;22.97
65384;BME280;51986;52.788;41.368;2022-08-03T04:10:31;99230.84;;;33.59;23.21
65384;BME280;51986;52.788;41.368;2022-08-03T04:13:01;99275.38;;;33.29;23.24
65384;BME280;51986;52.788;41.368;2022-08-03T04:15:30;99199.28;;;32.87;23.26
65384;BME280;51986;52.788;41.368;2022-08-03T04:17:59;99235.91;;;32.54;24.30
65384;BME280;51986;52.788;41.368;2022-08-03T04:20:30;99238.63;;;33.07;23.92
65384;BME280;51986;52.788;41.368;2022-08-03T04:22:59;99144.34;;;32.45;24.34
65384;BME280;51986;52.788;41.368;2022-08-03T04:25:30;99244.09;;;32.69;24.26
65384;BME280;51986;52.788;41.368;2022-08-03T04:28:01;99224.44;;;32.63;24.12
65384;BME280;51986;52.788;41.368;2022-08-03T04:30:48;99249.50;;;33.22;23.47
65384;BME280;51986;52.788;41.368;2022-08-03T04:33:16;99236.63;;;33.00;24.23
65384;BME280;51986;52.788;41.368;2022-08-03T04:35:46;99232.16;;;33.43;23.55
65384;BME280;51986;52.788;41.368;2022-08-03T04:38:30;99230.72;;;33.34;23.37
65384;BME280;51986;52.788;41.368;2022-08-03T04:40:58;99220.44;;;33.90;23.07
65384;BME280;51986;52.788;41.368;2022-08-03T04:43:26;99229.75;;;33.55;23.18
65384;BME280;51986;52.788;41.368;2022-08-03T04:45:55;99240.63;;;32.38;24.19
65384;BME280;51986;52.788;41.368;2022-08-03T04:48:23;99231.34;;;31.38;26.15
65384;BME280;51986;52.788;41.368;2022-08-03T04:50:50;99229.91;;;31.37;25.91
65384;BME280;51986;52.788;41.368;2022-08-03T04:53:18;99233.84;;;30.79;27.19
65384;BME280;51986;52.788;41.368;2022-08-03T04:55:45;99226.63;;;30.05;28.65
65384;BME280;51986;52.788;41.368;2022-08-03T04:58:12;99246.56;;;29.21;29.47
65384;BME280;51986;52.788;41.368;2022-08-03T05:00:39;99237.44;;;28.91;30.29
65384;BME280;51986;52.788;41.368;2022-08-03T05:03:16;99236.81;;;28.99;30.71
65384;BME280;51986;52.788;41.368;2022-08-03T05:05:54;99247.63;;;28.53;31.11
65384;BME280;51986;52.788;41.368;2022-08-03T05:08:37;99251.41;;;27.94;31.68
65384;BME280;51986;52.788;41.368;2022-08-03T05:11:13;99248.63;;;27.99;32.14
65384;BME280;51986;52.788;41.368;2022-08-03T05:13:39;99239.59;;;27.72;33.09
65384;BME280;51986;52.788;41.368;2022-08-03T05:16:06;99242.50;;;27.55;33.62
65384;BME280;51986;52.788;41.368;2022-08-03T05:18:33;99242.06;;;27.51;33.46
65384;BME280;51986;52.788;41.368;2022-08-03T05:21:00;99226.00;;;27.04;34.21
65384;BME280;51986;52.788;41.368;2022-08-03T05:23:27;99247.97;;;27.25;34.50
65384;BME280;51986;52.788;41.368;2022-08-03T05:25:54;99255.31;;;27.30;34.27
65384;BME280;51986;52.788;41.368;2022-08-03T05:28:21;99256.72;;;27.12;34.67
65384;BME280;51986;52.788;41.368;2022-08-03T05:30:48;99258.44;;;27.10;34.29
65384;BME280;51986;52.788;41.368;2022-08-03T05:33:15;99240.97;;;27.11;34.48
65384;BME280;51986;52.788;41.368;2022-08-03T05:35:42;99247.88;;;26.76;35.16
65384;BME280;51986;52.788;41.368;2022-08-03T05:38:29;99249.78;;;26.51;35.88
65384;BME280;51986;52.788;41.368;2022-08-03T05:41:04;99264.06;;;26.87;35.74
65384;BME280;51986;52.788;41.368;2022-08-03T05:43:53;99239.75;;;26.76;35.77
65384;BME280;51986;52.788;41.368;2022-08-03T05:46:21;99262.19;;;26.35;36.26
65384;BME280;51986;52.788;41.368;2022-08-03T05:48:48;99247.03;;;26.62;36.27
65384;BME280;51986;52.788;41.368;2022-08-03T05:51:15;99259.56;;;26.96;35.93
65384;BME280;51986;52.788;41.368;2022-08-03T05:53:43;99253.78;;;27.10;35.51
65384;BME280;51986;52.788;41.368;2022-08-03T05:56:10;99256.34;;;26.97;35.48
65384;BME280;51986;52.788;41.368;2022-08-03T05:58:47;99250.25;;;26.55;35.71
65384;BME280;51986;52.788;41.368;2022-08-03T06:01:15;99270.31;;;26.71;34.92
65384;BME280;51986;52.788;41.368;2022-08-03T06:03:43;99275.75;;;26.66;35.75
65384;BME280;51986;52.788;41.368;2022-08-03T06:06:10;99235.63;;;26.40;36.10
65384;BME280;51986;52.788;41.368;2022-08-03T06:08:38;99265.19;;;26.68;36.04
65384;BME280;51986;52.788;41.368;2022-08-03T06:11:06;99277.56;;;26.52;35.63
65384;BME280;51986;52.788;41.368;2022-08-03T06:13:33;99269.31;;;26.74;35.55
65384;BME280;51986;52.788;41.368;2022-08-03T06:16:00;99279.69;;;26.65;35.87
65384;BME280;51986;52.788;41.368;2022-08-03T06:18:27;99281.81;;;26.42;36.21
65384;BME280;51986;52.788;41.368;2022-08-03T06:20:54;99287.59;;;26.62;35.47
65384;BME280;51986;52.788;41.368;2022-08-03T06:23:21;99276.28;;;26.64;35.31
65384;BME280;51986;52.788;41.368;2022-08-03T06:26:08;99281.56;;;26.86;35.09
65384;BME280;51986;52.788;41.368;2022-08-03T06:28:37;99288.19;;;26.85;34.79
65384;BME280;51986;52.788;41.368;2022-08-03T06:31:21;99292.44;;;27.05;34.96
65384;BME280;51986;52.788;41.368;2022-08-03T06:33:47;99283.50;;;27.16;34.75
65384;BME280;51986;52.788;41.368;2022-08-03T06:36:35;99263.94;;;27.29;34.57
65384;BME280;51986;52.788;41.368;2022-08-03T06:39:04;99264.00;;;27.48;33.96
65384;BME280;51986;52.788;41.368;2022-08-03T06:41:33;99278.00;;;27.52;33.77
65384;BME280;51986;52.788;41.368;2022-08-03T06:44:06;99294.53;;;27.48;33.87
65384;BME280;51986;52.788;41.368;2022-08-03T06:46:35;99272.25;;;27.61;33.68
65384;BME280;51986;52.788;41.368;2022-08-03T06:49:02;99285.91;;;27.74;33.14
65384;BME280;51986;52.788;41.368;2022-08-03T06:51:30;99266.03;;;28.09;32.73
65384;BME280;51986;52.788;41.368;2022-08-03T06:54:24;99259.63;;;28.45;32.56
65384;BME280;51986;52.788;41.368;2022-08-03T06:56:51;99294.00;;;28.55;32.14
65384;BME280;51986;52.788;41.368;2022-08-03T06:59:23;99259.63;;;28.77;31.15
65384;BME280;51986;52.788;41.368;2022-08-03T07:02:10;99284.72;;;28.83;31.42
65384;BME280;51986;52.788;41.368;2022-08-03T07:04:44;99272.00;;;28.91;31.26
65384;BME280;51986;52.788;41.368;2022-08-03T07:07:10;99264.38;;;28.89;31.33
65384;BME280;51986;52.788;41.368;2022-08-03T07:12:28;99272.28;;;28.74;30.76
65384;BME280;51986;52.788;41.368;2022-08-03T07:14:57;99270.41;;;29.28;29.99
65384;BME280;51986;52.788;41.368;2022-08-03T07:17:31;99253.63;;;28.84;30.46
65384;BME280;51986;52.788;41.368;2022-08-03T07:19:59;99277.44;;;29.04;29.79
65384;BME280;51986;52.788;41.368;2022-08-03T07:22:27;99298.00;;;29.45;29.73
65384;BME280;51986;52.788;41.368;2022-08-03T07:24:54;99284.28;;;29.24;29.07
65384;BME280;51986;52.788;41.368;2022-08-03T07:27:21;99286.59;;;29.86;28.84
65384;BME280;51986;52.788;41.368;2022-08-03T07:29:48;99270.91;;;29.92;29.78
65384;BME280;51986;52.788;41.368;2022-08-03T07:32:15;99279.31;;;29.41;29.80
65384;BME280;51986;52.788;41.368;2022-08-03T07:34:42;99269.47;;;29.52;27.79
65384;BME280;51986;52.788;41.368;2022-08-03T07:37:09;99274.13;;;30.04;28.73
65384;BME280;51986;52.788;41.368;2022-08-03T07:39:36;99280.34;;;29.78;28.42
65384;BME280;51986;52.788;41.368;2022-08-03T07:42:03;99274.28;;;29.85;28.24
65384;BME280;51986;52.788;41.368;2022-08-03T07:44:52;99264.03;;;29.38;27.80
65384;BME280;51986;52.788;41.368;2022-08-03T07:47:22;99250.22;;;29.63;27.48
65384;BME280;51986;52.788;41.368;2022-08-03T07:49:50;99257.66;;;29.62;27.88
65384;BME280;51986;52.788;41.368;2022-08-03T07:52:17;99260.91;;;29.34;27.68
65384;BME280;51986;52.788;41.368;2022-08-03T07:54:58;99284.09;;;29.88;26.99
65384;BME280;51986;52.788;41.368;2022-08-03T07:57:25;99274.69;;;29.89;26.82
65384;BME280;51986;52.788;41.368;2022-08-03T07:59:51;99258.13;;;30.01;27.19
65384;BME280;51986;52.788;41.368;2022-08-03T08:02:37;99251.66;;;30.04;26.74
65384;BME280;51986;52.788;41.368;2022-08-03T08:05:04;99301.66;;;29.74;27.30
65384;BME280;51986;52.788;41.368;2022-08-03T08:07:32;99272.78;;;29.98;26.77
65384;BME280;51986;52.788;41.368;2022-08-03T08:09:59;99284.28;;;29.64;28.48
65384;BME280;51986;52.788;41.368;2022-08-03T08:12:25;99274.69;;;29.36;27.86
65384;BME280;51986;52.788;41.368;2022-08-03T08:14:52;99279.00;;;29.45;27.20
65384;BME280;51986;52.788;41.368;2022-08-03T08:17:19;99281.78;;;29.39;27.26
65384;BME280;51986;52.788;41.368;2022-08-03T08:19:46;99279.06;;;29.39;27.31
65384;BME280;51986;52.788;41.368;2022-08-03T08:22:19;99286.63;;;29.60;27.17
65384;BME280;51986;52.788;41.368;2022-08-03T08:24:57;99290.47;;;29.25;27.44
65384;BME280;51986;52.788;41.368;2022-08-03T08:27:24;99267.91;;;29.43;27.29
65384;BME280;51986;52.788;41.368;2022-08-03T08:29:51;99266.34;;;29.21;27.06
65384;BME280;51986;52.788;41.368;2022-08-03T08:32:24;99268.53;;;29.49;27.57
65384;BME280;51986;52.788;41.368;2022-08-03T08:34:51;99279.63;;;29.64;26.54
65384;BME280;51986;52.788;41.368;2022-08-03T08:37:18;99269.69;;;29.40;27.09
65384;BME280;51986;52.788;41.368;2022-08-03T08:39:45;99276.25;;;29.32;27.16
65384;BME280;51986;52.788;41.368;2022-08-03T08:42:12;99278.81;;;29.11;27.78
65384;BME280;51986;52.788;41.368;2022-08-03T08:44:38;99280.13;;;29.23;27.38
65384;BME280;51986;52.788;41.368;2022-08-03T08:47:07;99273.97;;;29.36;27.45
65384;BME280;51986;52.788;41.368;2022-08-03T08:49:35;99279.38;;;29.76;27.47
65384;BME280;51986;52.788;41.368;2022-08-03T08:57:57;99262.56;;;29.77;26.49
65384;BME280;51986;52.788;41.368;2022-08-03T09:00:24;99264.44;;;29.69;26.34
65384;BME280;51986;52.788;41.368;2022-08-03T09:02:51;99259.22;;;29.45;27.41
65384;BME280;51986;52.788;41.368;2022-08-03T09:05:18;99274.91;;;29.65;25.95
65384;BME280;51986;52.788;41.368;2022-08-03T09:08:05;99281.59;;;29.90;24.96
65384;BME280;51986;52.788;41.368;2022-08-03T09:10:53;99283.25;;;30.41;25.05
65384;BME280;51986;52.788;41.368;2022-08-03T09:13:20;99264.53;;;30.37;25.12
65384;BME280;51986;52.788;41.368;2022-08-03T09:15:47;99281.13;;;30.13;25.90
65384;BME280;51986;52.788;41.368;2022-08-03T09:18:30;99254.25;;;30.09;26.57
65384;BME280;51986;52.788;41.368;2022-08-03T09:21:27;99274.97;;;30.47;24.36
65384;BME280;51986;52.788;41.368;2022-08-03T09:24:01;99271.44;;;30.25;25.24
65384;BME280;51986;52.788;41.368;2022-08-03T09:26:36;99275.59;;;30.39;24.81
65384;BME280;51986;52.788;41.368;2022-08-03T09:29:08;99265.72;;;30.50;24.88
65384;BME280;51986;52.788;41.368;2022-08-03T09:31:42;99275.22;;;30.77;25.45
65384;BME280;51986;52.788;41.368;2022-08-03T09:34:12;99283.25;;;30.62;25.07
65384;BME280;51986;52.788;41.368;2022-08-03T09:39:12;99258.56;;;30.39;25.27
65384;BME280;51986;52.788;41.368;2022-08-03T09:41:41;99294.00;;;29.99;26.99
65384;BME280;51986;52.788;41.368;2022-08-03T09:44:08;99308.13;;;29.98;28.27
65384;BME280;51986;52.788;41.368;2022-08-03T09:46:54;99309.34;;;30.23;27.11
65384;BME280;51986;52.788;41.368;2022-08-03T09:49:22;99284.91;;;29.97;27.99
65384;BME280;51986;52.788;41.368;2022-08-03T09:51:51;99289.22;;;30.39;26.87
65384;BME280;51986;52.788;41.368;2022-08-03T09:54:39;99291.41;;;29.94;27.55
65384;BME280;51986;52.788;41.368;2022-08-03T09:57:06;99307.13;;;30.35;27.94
65384;BME280;51986;52.788;41.368;2022-08-03T09:59:34;99303.50;;;30.19;27.88
65384;BME280;51986;52.788;41.368;2022-08-03T10:02:04;99291.84;;;30.66;26.01
65384;BME280;51986;52.788;41.368;2022-08-03T10:04:46;99299.44;;;30.47;25.87
65384;BME280;51986;52.788;41.368;2022-08-03T10:07:13;99298.81;;;30.75;25.89
65384;BME280;51986;52.788;41.368;2022-08-03T10:09:52;99298.97;;;30.90;25.13
65384;BME280;51986;52.788;41.368;2022-08-03T10:12:20;99300.69;;;31.29;25.24
65384;BME280;51986;52.788;41.368;2022-08-03T10:14:47;99291.56;;;30.98;25.00
65384;BME280;51986;52.788;41.368;2022-08-03T10:17:14;99293.56;;;30.77;25.09
65384;BME280;51986;52.788;41.368;2022-08-03T10:20:05;99292.25;;;30.91;24.63
65384;BME280;51986;52.788;41.368;2022-08-03T10:22:34;99294.75;;;30.68;25.61
65384;BME280;51986;52.788;41.368;2022-08-03T10:25:22;99291.13;;;30.86;26.01
65384;BME280;51986;52.788;41.368;2022-08-03T10:28:01;99293.97;;;31.02;24.52
65384;BME280;51986;52.788;41.368;2022-08-03T10:30:30;99307.44;;;31.07;24.91
65384;BME280;51986;52.788;41.368;2022-08-03T10:33:04;99281.66;;;31.08;24.52
65384;BME280;51986;52.788;41.368;2022-08-03T10:35:56;99296.97;;;30.90;25.37
65384;BME280;51986;52.788;41.368;2022-08-03T10:38:32;99280.56;;;31.32;24.51
65384;BME280;51986;52.788;41.368;2022-08-03T10:41:05;99272.06;;;31.72;24.91
65384;BME280;51986;52.788;41.368;2022-08-03T10:43:41;99293.16;;;31.79;24.48
65384;BME280;51986;52.788;41.368;2022-08-03T10:46:13;99289.50;;;31.40;24.82
65384;BME280;51986;52.788;41.368;2022-08-03T10:48:44;99308.88;;;31.29;25.18
65384;BME280;51986;52.788;41.368;2022-08-03T10:51:12;99300.28;;;31.25;25.00
65384;BME280;51986;52.788;41.368;2022-08-03T10:53:40;99307.44;;;31.57;25.11
65384;BME280;51986;52.788;41.368;2022-08-03T10:56:44;99308.56;;;31.69;24.18
65384;BME280;51986;52.788;41.368;2022-08-03T10:59:17;99304.63;;;31.78;23.96
65384;BME280;51986;52.788;41.368;2022-08-03T11:01:55;99305.13;;;32.05;22.71
65384;BME280;51986;52.788;41.368;2022-08-03T11:04:28;99283.31;;;32.12;23.43
65384;BME280;51986;52.788;41.368;2022-08-03T11:07:35;99267.69;;;32.20;23.90
65384;BME280;51986;52.788;41.368;2022-08-03T11:10:02;99293.84;;;32.08;23.62
65384;BME280;51986;52.788;41.368;2022-08-03T11:12:36;99302.22;;;32.18;24.07
65384;BME280;51986;52.788;41.368;2022-08-03T11:15:05;99288.56;;;31.38;25.46
65384;BME280;51986;52.788;41.368;2022-08-03T11:18:07;99299.59;;;31.89;25.13
65384;BME280;51986;52.788;41.368;2022-08-03T11:20:57;99272.22;;;31.74;24.98
65384;BME280;51986;52.788;41.368;2022-08-03T11:30:07;99293.41;;;31.24;26.05
65384;BME280;51986;52.788;41.368;2022-08-03T11:35:32;99289.97;;;31.31;24.98
65384;BME280;51986;52.788;41.368;2022-08-03T11:46:12;99301.38;;;30.38;25.98
65384;BME280;51986;52.788;41.368;2022-08-03T11:49:04;99298.19;;;30.68;26.14
65384;BME280;51986;52.788;41.368;2022-08-03T11:51:36;99290.22;;;30.50;25.56
65384;BME280;51986;52.788;41.368;2022-08-03T11:54:18;99296.16;;;31.03;25.97
65384;BME280;51986;52.788;41.368;2022-08-03T11:56:49;99290.50;;;30.80;26.06
65384;BME280;51986;52.788;41.368;2022-08-03T11:59:16;99291.78;;;31.00;26.77
65384;BME280;51986;52.788;41.368;2022-08-03T12:01:51;99291.03;;;31.00;26.25
65384;BME280;51986;52.788;41.368;2022-08-03T12:04:57;99294.94;;;31.12;26.14
65384;BME280;51986;52.788;41.368;2022-08-03T12:07:27;99293.56;;;31.26;25.54
65384;BME280;51986;52.788;41.368;2022-08-03T12:10:14;99309.16;;;31.18;25.96
65384;BME280;51986;52.788;41.368;2022-08-03T12:12:41;99309.38;;;31.49;25.36
65384;BME280;51986;52.788;41.368;2022-08-03T12:15:12;99283.47;;;31.06;25.90
65384;BME280;51986;52.788;41.368;2022-08-03T12:17:40;99273.25;;;31.27;26.03
65384;BME280;51986;52.788;41.368;2022-08-03T12:20:08;99276.34;;;31.60;25.15
65384;BME280;51986;52.788;41.368;2022-08-03T12:22:37;99278.78;;;31.71;24.86
65384;BME280;51986;52.788;41.368;2022-08-03T12:25:06;99273.31;;;31.71;24.86
65384;BME280;51986;52.788;41.368;2022-08-03T12:27:35;99293.78;;;31.57;25.66
65384;BME280;51986;52.788;41.368;2022-08-03T12:30:02;99290.09;;;31.18;24.92
65384;BME280;51986;52.788;41.368;2022-08-03T12:32:30;99293.69;;;30.92;25.47
65384;BME280;51986;52.788;41.368;2022-08-03T12:34:57;99282.78;;;31.13;24.96
65384;BME280;51986;52.788;41.368;2022-08-03T12:37:26;99293.94;;;31.23;25.81
65384;BME280;51986;52.788;41.368;2022-08-03T12:39:55;99288.78;;;30.90;25.93
65384;BME280;51986;52.788;41.368;2022-08-03T12:42:31;99277.69;;;30.67;25.70
65384;BME280;51986;52.788;41.368;2022-08-03T12:45:21;99273.50;;;31.08;26.69
65384;BME280;51986;52.788;41.368;2022-08-03T12:47:56;99276.44;;;30.89;26.91
65384;BME280;51986;52.788;41.368;2022-08-03T12:50:30;99277.22;;;30.77;26.96
65384;BME280;51986;52.788;41.368;2022-08-03T12:53:29;99292.22;;;30.70;26.56
65384;BME280;51986;52.788;41.368;2022-08-03T12:56:01;99283.56;;;30.37;26.37
65384;BME280;51986;52.788;41.368;2022-08-03T12:58:34;99265.16;;;30.30;26.66
65384;BME280;51986;52.788;41.368;2022-08-03T13:01:03;99275.41;;;30.03;26.96
65384;BME280;51986;52.788;41.368;2022-08-03T13:03:39;99287.84;;;29.72;27.35
65384;BME280;51986;52.788;41.368;2022-08-03T13:06:16;99272.81;;;29.84;27.26
65384;BME280;51986;52.788;41.368;2022-08-03T13:08:44;99278.53;;;29.67;27.47
65384;BME280;51986;52.788;41.368;2022-08-03T13:11:26;99260.06;;;29.39;28.46
65384;BME280;51986;52.788;41.368;2022-08-03T13:14:13;99274.88;;;29.25;28.22
65384;BME280;51986;52.788;41.368;2022-08-03T13:16:48;99250.81;;;29.16;28.14
65384;BME280;51986;52.788;41.368;2022-08-03T13:19:15;99266.75;;;29.25;28.99
65384;BME280;51986;52.788;41.368;2022-08-03T13:21:42;99271.09;;;29.15;29.48
65384;BME280;51986;52.788;41.368;2022-08-03T13:24:30;99251.31;;;29.01;29.06
65384;BME280;51986;52.788;41.368;2022-08-03T13:26:58;99273.75;;;29.34;28.94
65384;BME280;51986;52.788;41.368;2022-08-03T13:29:25;99270.88;;;29.00;29.47
65384;BME280;51986;52.788;41.368;2022-08-03T13:31:52;99262.00;;;29.12;29.08
65384;BME280;51986;52.788;41.368;2022-08-03T13:34:19;99268.59;;;29.04;28.97
65384;BME280;51986;52.788;41.368;2022-08-03T13:36:50;99263.38;;;29.19;29.08
65384;BME280;51986;52.788;41.368;2022-08-03T13:39:38;99266.03;;;29.64;29.21
65384;BME280;51986;52.788;41.368;2022-08-03T13:42:29;99264.94;;;29.94;28.58
65384;BME280;51986;52.788;41.368;2022-08-03T13:44:56;99261.00;;;29.55;29.61
65384;BME280;51986;52.788;41.368;2022-08-03T13:47:23;99265.72;;;29.41;29.05
65384;BME280;51986;52.788;41.368;2022-08-03T13:49:51;99240.59;;;29.62;28.73
65384;BME280;51986;52.788;41.368;2022-08-03T13:52:28;99250.56;;;29.46;29.11
65384;BME280;51986;52.788;41.368;2022-08-03T13:54:55;99260.47;;;29.57;29.04
65384;BME280;51986;52.788;41.368;2022-08-03T13:57:22;99276.56;;;29.68;28.69
65384;BME280;51986;52.788;41.368;2022-08-03T14:00:10;99261.97;;;29.31;28.60